Time;durP1;ratioP1;P1;durP2;ratioP2;P2;SDS_P1;SDS_P2;PMS_P1;PMS_P2;Temp;Humidity;BMP_temperature;BMP_pressure;BME280_temperature;BME280_humidity;BME280_pressure;Samples;Min_cycle;Max_cycle;Signal;HPM_P1;HPM_P2
2022/10/25 00:00:14;;;;;;;17.60;6.40;;;10.10;99.90;;;;;;5104531;28;20193;-61
2022/10/25 00:02:40;;;;;;;15.20;7.43;;;10.10;99.90;;;;;;5099218;28;20260;-61
2022/10/25 00:05:06;;;;;;;14.30;7.53;;;10.10;99.90;;;;;;5110782;28;20174;-61
2022/10/25 00:07:32;;;;;;;31.07;7.70;;;10.10;99.90;;;;;;5102484;28;20239;-61
2022/10/25 00:09:57;;;;;;;18.57;6.77;;;10.00;99.90;;;;;;5108347;28;20432;-61
2022/10/25 00:12:23;;;;;;;15.63;7.33;;;10.00;99.90;;;;;;5106020;28;20190;-61
2022/10/25 00:14:48;;;;;;;26.03;7.20;;;10.00;99.90;;;;;;5103102;28;20705;-61
2022/10/25 00:17:14;;;;;;;32.20;9.37;;;10.00;99.90;;;;;;5110769;28;20797;-60
2022/10/25 00:19:40;;;;;;;19.73;7.80;;;9.90;99.90;;;;;;5103949;28;20212;-61
2022/10/25 00:22:05;;;;;;;45.23;10.50;;;9.90;99.90;;;;;;5104689;28;20554;-60
2022/10/25 00:24:31;;;;;;;46.90;9.90;;;9.90;99.90;;;;;;5106838;28;20181;-62
2022/10/25 00:26:56;;;;;;;94.70;12.27;;;9.90;99.90;;;;;;5094089;28;20204;-61
2022/10/25 00:29:22;;;;;;;58.90;10.30;;;9.90;99.90;;;;;;5099770;28;20174;-61
2022/10/25 00:31:47;;;;;;;109.07;12.03;;;9.90;99.90;;;;;;5106621;28;20173;-60
2022/10/25 00:34:13;;;;;;;19.93;7.93;;;9.90;99.90;;;;;;5107025;28;20350;-60
2022/10/25 00:36:39;;;;;;;21.90;7.97;;;9.90;99.90;;;;;;5104819;28;20686;-61
2022/10/25 00:39:04;;;;;;;39.53;8.70;;;9.90;99.90;;;;;;5102164;28;20193;-61
2022/10/25 00:41:32;;;;;;;20.37;6.60;;;9.90;99.90;;;;;;5101243;28;20174;-61
2022/10/25 00:44:35;;;;;;;22.23;6.93;;;9.90;99.90;;;;;;5099144;28;20260;-61
2022/10/25 00:47:33;;;;;;;30.80;7.90;;;9.90;99.90;;;;;;5097852;28;20532;-62
2022/10/25 00:50:13;;;;;;;66.63;9.80;;;9.90;99.90;;;;;;5069795;28;20852;-61
2022/10/25 00:52:43;;;;;;;52.93;8.97;;;9.90;99.90;;;;;;5097808;28;20481;-60
2022/10/25 00:55:10;;;;;;;47.20;8.17;;;9.90;99.90;;;;;;5103908;28;20837;-61
2022/10/25 00:57:41;;;;;;;24.43;7.03;;;9.90;99.90;;;;;;5106537;28;20439;-60
2022/10/25 01:00:07;;;;;;;100.43;10.07;;;9.90;99.90;;;;;;5105350;28;20496;-61
2022/10/25 01:02:33;;;;;;;94.13;8.20;;;9.90;99.90;;;;;;5109107;28;20442;-61
2022/10/25 01:05:00;;;;;;;85.53;7.23;;;9.90;99.90;;;;;;5103318;28;20411;-61
2022/10/25 01:07:26;;;;;;;77.63;8.20;;;9.90;99.90;;;;;;5107077;28;20984;-61
2022/10/25 01:09:52;;;;;;;87.83;9.53;;;9.80;99.90;;;;;;5108449;28;20450;-60
2022/10/25 01:12:18;;;;;;;54.17;9.80;;;9.80;99.90;;;;;;5104026;28;20170;-60
2022/10/25 01:14:47;;;;;;;52.47;7.20;;;9.80;99.90;;;;;;5103802;28;20460;-61
2022/10/25 01:17:31;;;;;;;79.27;9.20;;;9.80;99.90;;;;;;5105275;28;20276;-61
2022/10/25 01:20:03;;;;;;;41.13;7.10;;;9.80;99.90;;;;;;5100218;28;20451;-61
2022/10/25 01:23:05;;;;;;;39.40;6.70;;;9.70;99.90;;;;;;5100266;28;20526;-61
2022/10/25 01:26:01;;;;;;;31.83;7.53;;;9.70;99.90;;;;;;5110601;28;20414;-61
2022/10/25 01:29:04;;;;;;;39.67;8.17;;;9.70;99.90;;;;;;5096537;28;20431;-61
2022/10/25 01:31:51;;;;;;;33.00;8.20;;;9.70;99.90;;;;;;5097426;28;20426;-61
2022/10/25 01:34:22;;;;;;;63.70;7.77;;;9.70;99.90;;;;;;5103325;28;20425;-61
2022/10/25 01:37:17;;;;;;;60.83;8.07;;;9.70;99.90;;;;;;5097122;28;20473;-62
2022/10/25 01:39:50;;;;;;;70.87;8.30;;;9.70;99.90;;;;;;5097653;28;21046;-61
2022/10/25 01:42:36;;;;;;;42.67;8.00;;;9.70;99.90;;;;;;5102100;28;20423;-61
2022/10/25 01:45:14;;;;;;;33.43;5.93;;;9.70;99.90;;;;;;5102881;28;20418;-61
2022/10/25 01:47:50;;;;;;;62.00;7.30;;;9.70;99.90;;;;;;5104361;28;20509;-61
2022/10/25 01:50:22;;;;;;;59.87;6.80;;;9.70;99.90;;;;;;5101486;28;20469;-61
2022/10/25 01:52:48;;;;;;;64.80;7.43;;;9.70;99.90;;;;;;5099843;28;20454;-61
2022/10/25 01:55:14;;;;;;;101.73;9.10;;;9.70;99.90;;;;;;5105070;28;21287;-60
2022/10/25 01:57:43;;;;;;;40.67;7.03;;;9.70;99.90;;;;;;5100727;28;20190;-61
2022/10/25 02:00:16;;;;;;;48.70;7.13;;;9.70;99.90;;;;;;5103168;28;20501;-61
2022/10/25 02:03:08;;;;;;;56.47;7.97;;;9.60;99.90;;;;;;5096840;28;20484;-61
2022/10/25 02:05:58;;;;;;;66.50;7.97;;;9.60;99.90;;;;;;5103280;28;20430;-60
2022/10/25 02:08:34;;;;;;;67.67;7.97;;;9.60;99.90;;;;;;5100533;28;20446;-61
2022/10/25 02:11:18;;;;;;;60.83;7.83;;;9.60;99.90;;;;;;5104599;28;20433;-61
2022/10/25 02:13:58;;;;;;;76.87;8.63;;;9.60;99.90;;;;;;5094428;28;20516;-60
2022/10/25 02:16:49;;;;;;;78.70;9.10;;;9.60;99.90;;;;;;5109683;28;20517;-62
2022/10/25 02:19:19;;;;;;;63.67;9.10;;;9.60;99.90;;;;;;5105287;28;20494;-61
2022/10/25 02:21:47;;;;;;;82.83;10.40;;;9.60;99.90;;;;;;5095799;28;20454;-60
2022/10/25 02:24:20;;;;;;;65.10;8.80;;;9.60;99.90;;;;;;5097994;28;20823;-61
2022/10/25 02:26:47;;;;;;;63.23;9.57;;;9.60;99.90;;;;;;5120491;27;20439;-61
2022/10/25 02:29:15;;;;;;;72.00;10.23;;;9.60;99.90;;;;;;5102847;28;20604;-61
2022/10/25 02:31:42;;;;;;;63.43;10.07;;;9.60;99.90;;;;;;5104888;28;20431;-61
2022/10/25 02:34:08;;;;;;;83.77;11.87;;;9.60;99.90;;;;;;5098022;28;20423;-61
2022/10/25 02:36:33;;;;;;;53.00;10.80;;;9.60;99.90;;;;;;5105419;28;20942;-61
2022/10/25 02:38:59;;;;;;;29.33;8.27;;;9.60;99.90;;;;;;5092769;28;20684;-60
2022/10/25 02:41:25;;;;;;;36.97;9.27;;;9.60;99.90;;;;;;5097601;28;20184;-61
2022/10/25 02:47:12;;;;;;;32.33;7.33;;;9.60;99.90;;;;;;5105884;28;20316;-61
2022/10/25 02:49:38;;;;;;;48.63;8.07;;;9.60;99.90;;;;;;5100748;28;21025;-61
2022/10/25 02:52:04;;;;;;;55.97;7.43;;;9.60;99.90;;;;;;5098713;28;20446;-62
2022/10/25 02:54:29;;;;;;;25.53;6.90;;;9.50;99.90;;;;;;5097744;28;20188;-59
2022/10/25 02:56:55;;;;;;;64.97;6.70;;;9.50;99.90;;;;;;5097500;28;20196;-62
2022/10/25 02:59:20;;;;;;;35.23;6.93;;;9.50;99.90;;;;;;5099090;28;20652;-61
2022/10/25 03:01:46;;;;;;;29.00;6.07;;;9.50;99.90;;;;;;5104268;28;20205;-61
2022/10/25 03:04:12;;;;;;;25.13;5.20;;;9.50;99.90;;;;;;5108184;28;20177;-59
2022/10/25 03:06:38;;;;;;;34.20;6.93;;;9.50;99.90;;;;;;5103974;28;20507;-62
2022/10/25 03:09:03;;;;;;;47.20;7.47;;;9.50;99.90;;;;;;5100696;28;20177;-61
2022/10/25 03:11:29;;;;;;;47.60;7.50;;;9.50;99.90;;;;;;5104304;28;20185;-61
2022/10/25 03:13:54;;;;;;;20.23;5.70;;;9.50;99.90;;;;;;5099883;28;20550;-61
2022/10/25 03:16:20;;;;;;;27.70;6.17;;;9.50;99.90;;;;;;5101746;28;20197;-62
2022/10/25 03:18:46;;;;;;;25.93;7.27;;;9.50;99.90;;;;;;5097333;28;20197;-61
2022/10/25 03:21:11;;;;;;;55.37;7.37;;;9.50;99.90;;;;;;5100701;28;20173;-61
2022/10/25 03:23:37;;;;;;;24.60;6.97;;;9.50;99.90;;;;;;5100850;28;20209;-61
2022/10/25 03:26:03;;;;;;;38.17;7.13;;;9.50;99.90;;;;;;5097502;28;20700;-61
2022/10/25 03:28:30;;;;;;;64.93;8.90;;;9.60;99.90;;;;;;5102035;28;20211;-62
2022/10/25 03:30:57;;;;;;;54.77;9.87;;;9.60;99.90;;;;;;5099231;28;20435;-62
2022/10/25 03:33:23;;;;;;;38.97;8.47;;;9.60;99.90;;;;;;5102056;28;20426;-61
2022/10/25 03:35:50;;;;;;;50.83;10.00;;;9.60;99.90;;;;;;5103986;28;20807;-62
2022/10/25 03:38:16;;;;;;;45.33;10.00;;;9.60;99.90;;;;;;5100829;28;20454;-61
2022/10/25 03:40:42;;;;;;;34.60;9.93;;;9.60;99.90;;;;;;5099525;28;20458;-61
2022/10/25 03:43:08;;;;;;;64.03;9.80;;;9.60;99.90;;;;;;5102423;28;20181;-62
2022/10/25 03:45:33;;;;;;;58.10;8.60;;;9.60;99.90;;;;;;5107275;28;20491;-59
2022/10/25 03:47:59;;;;;;;41.87;8.40;;;9.60;99.90;;;;;;5106585;28;20213;-59
2022/10/25 03:50:25;;;;;;;61.03;9.23;;;9.60;99.90;;;;;;5101399;28;20356;-59
2022/10/25 03:52:50;;;;;;;30.90;8.03;;;9.70;99.90;;;;;;5102136;28;20795;-61
2022/10/25 03:55:16;;;;;;;61.57;9.00;;;9.70;99.90;;;;;;5104923;28;20177;-61
2022/10/25 03:57:42;;;;;;;36.53;8.00;;;9.70;99.90;;;;;;5103790;28;20204;-62
2022/10/25 04:00:08;;;;;;;45.80;8.27;;;9.60;99.90;;;;;;5101273;28;20870;-61
2022/10/25 04:02:34;;;;;;;34.33;7.57;;;9.60;99.90;;;;;;5102875;28;20246;-61
2022/10/25 04:04:59;;;;;;;26.13;7.10;;;9.60;99.90;;;;;;5103068;28;20460;-61
2022/10/25 04:07:25;;;;;;;35.83;7.53;;;9.60;99.90;;;;;;5104483;28;20204;-61
2022/10/25 04:09:50;;;;;;;97.30;10.10;;;9.70;99.90;;;;;;5107296;28;20176;-60
2022/10/25 04:12:16;;;;;;;21.70;7.33;;;9.60;99.90;;;;;;5098306;28;20183;-60
2022/10/25 04:14:42;;;;;;;63.80;9.50;;;9.70;99.90;;;;;;5097623;28;20651;-61
2022/10/25 04:17:07;;;;;;;32.90;8.40;;;9.70;99.90;;;;;;5105398;28;20269;-60
2022/10/25 04:19:33;;;;;;;17.30;7.07;;;9.70;99.90;;;;;;5099814;28;20671;-61
2022/10/25 04:22:01;;;;;;;52.63;7.20;;;9.70;99.90;;;;;;5100566;28;20178;-61
2022/10/25 04:24:27;;;;;;;18.43;6.40;;;9.60;99.90;;;;;;5105089;28;20169;-59
2022/10/25 04:26:52;;;;;;;31.77;7.33;;;9.60;99.90;;;;;;5103281;28;20560;-60
2022/10/25 04:29:18;;;;;;;18.93;6.23;;;9.60;99.90;;;;;;5100750;28;20525;-60
2022/10/25 04:31:44;;;;;;;28.50;6.33;;;9.60;99.90;;;;;;5102265;28;20666;-60
2022/10/25 04:34:10;;;;;;;82.80;9.40;;;9.60;99.90;;;;;;5104965;28;20438;-59
2022/10/25 04:36:37;;;;;;;35.53;7.57;;;9.60;99.90;;;;;;5101081;28;20196;-60
2022/10/25 04:39:03;;;;;;;42.33;8.57;;;9.60;99.90;;;;;;5098402;28;20242;-60
2022/10/25 04:41:29;;;;;;;33.77;9.10;;;9.60;99.90;;;;;;5092098;28;20435;-59
2022/10/25 04:43:54;;;;;;;29.97;8.33;;;9.50;99.90;;;;;;5081778;28;20186;-60
2022/10/25 04:46:20;;;;;;;23.07;8.13;;;9.50;99.90;;;;;;5093822;28;20184;-59
2022/10/25 04:48:46;;;;;;;24.87;10.17;;;9.60;99.90;;;;;;5100970;28;20197;-60
2022/10/25 04:51:12;;;;;;;42.43;9.73;;;9.60;99.90;;;;;;5096546;28;20309;-56
2022/10/25 04:53:38;;;;;;;24.70;8.87;;;9.60;99.90;;;;;;5092308;28;20268;-61
2022/10/25 04:56:09;;;;;;;31.60;10.43;;;9.60;99.90;;;;;;5107753;28;20575;-60
2022/10/25 04:58:35;;;;;;;43.67;9.93;;;9.60;99.90;;;;;;5096691;28;20181;-60
2022/10/25 05:01:05;;;;;;;32.00;9.03;;;9.60;99.90;;;;;;5096333;28;20434;-61
2022/10/25 05:03:31;;;;;;;40.77;8.83;;;9.60;99.90;;;;;;5100254;28;20430;-60
2022/10/25 05:06:18;;;;;;;20.87;8.00;;;9.60;99.90;;;;;;5104868;28;20932;-60
2022/10/25 05:08:47;;;;;;;34.17;9.40;;;9.60;99.90;;;;;;5108965;28;20426;-60
2022/10/25 05:11:15;;;;;;;29.00;9.37;;;9.60;99.90;;;;;;5111138;28;20451;-61
2022/10/25 05:13:43;;;;;;;41.73;8.40;;;9.60;99.90;;;;;;5107790;28;20800;-60
2022/10/25 05:16:13;;;;;;;26.43;8.83;;;9.60;99.90;;;;;;5097831;28;20436;-59
2022/10/25 05:18:39;;;;;;;33.27;9.40;;;9.60;99.90;;;;;;5103407;28;20434;-60
2022/10/25 05:21:05;;;;;;;38.20;7.93;;;9.60;99.90;;;;;;5108232;28;21109;-60
2022/10/25 05:23:32;;;;;;;24.93;7.77;;;9.60;99.90;;;;;;5108082;28;20176;-60
2022/10/25 05:26:02;;;;;;;20.33;8.47;;;9.60;99.90;;;;;;5100988;28;20423;-61
2022/10/25 05:28:27;;;;;;;39.20;8.40;;;9.60;99.90;;;;;;5105328;28;20510;-60
2022/10/25 05:30:53;;;;;;;21.83;9.00;;;9.60;99.90;;;;;;5099791;28;20560;-61
2022/10/25 05:33:18;;;;;;;30.90;8.83;;;9.60;99.90;;;;;;5105205;28;20547;-59
2022/10/25 05:35:44;;;;;;;20.30;8.87;;;9.60;99.90;;;;;;5108574;28;20675;-60
2022/10/25 05:38:09;;;;;;;25.73;8.20;;;9.60;99.90;;;;;;5103584;28;20211;-60
2022/10/25 05:40:35;;;;;;;24.93;9.10;;;9.70;99.90;;;;;;5109225;28;20212;-60
2022/10/25 05:43:01;;;;;;;28.53;9.70;;;9.70;99.90;;;;;;5101970;28;20262;-60
2022/10/25 05:45:26;;;;;;;38.80;9.23;;;9.70;99.90;;;;;;5105120;28;20178;-60
2022/10/25 05:47:52;;;;;;;28.90;9.17;;;9.70;99.90;;;;;;5104406;28;20203;-60
2022/10/25 05:50:17;;;;;;;16.97;8.00;;;9.70;99.90;;;;;;5101604;28;20181;-60
2022/10/25 05:52:43;;;;;;;22.73;8.70;;;9.70;99.90;;;;;;5098807;28;20254;-60
2022/10/25 05:55:09;;;;;;;21.30;7.70;;;9.70;99.90;;;;;;5109854;28;20200;-60
2022/10/25 05:57:35;;;;;;;24.33;7.73;;;9.70;99.90;;;;;;5107016;28;20944;-60
2022/10/25 06:00:00;;;;;;;29.17;8.90;;;9.70;99.90;;;;;;5105819;28;20592;-61
2022/10/25 06:02:26;;;;;;;28.60;10.30;;;9.70;99.90;;;;;;5095985;28;20669;-59
2022/10/25 06:04:52;;;;;;;25.00;10.33;;;9.60;99.90;;;;;;5109877;28;20173;-60
2022/10/25 06:07:17;;;;;;;32.83;10.60;;;9.70;99.90;;;;;;5096347;28;20777;-60
2022/10/25 06:09:43;;;;;;;36.07;11.63;;;9.70;99.90;;;;;;5100432;28;20195;-60
2022/10/25 06:12:08;;;;;;;45.50;13.50;;;9.70;99.90;;;;;;5108304;28;20615;-60
2022/10/25 06:14:34;;;;;;;33.43;13.10;;;9.70;99.90;;;;;;5106536;28;20181;-60
2022/10/25 06:16:59;;;;;;;27.83;10.40;;;9.70;99.90;;;;;;5093137;28;20701;-59
2022/10/25 06:19:26;;;;;;;27.57;9.40;;;9.70;99.90;;;;;;5088379;28;20894;-60
2022/10/25 06:21:53;;;;;;;32.50;8.73;;;9.70;99.90;;;;;;5102095;28;20537;-60
2022/10/25 06:24:18;;;;;;;32.13;8.50;;;9.70;99.90;;;;;;5099404;28;20419;-60
2022/10/25 06:26:44;;;;;;;28.87;7.70;;;9.70;99.90;;;;;;5100920;27;20435;-60
2022/10/25 06:29:10;;;;;;;21.33;8.63;;;9.70;99.90;;;;;;5106778;28;20260;-60
2022/10/25 06:31:35;;;;;;;24.60;7.20;;;9.70;99.90;;;;;;5101187;28;20185;-59
2022/10/25 06:34:02;;;;;;;21.70;8.03;;;9.70;99.90;;;;;;5099140;28;20231;-60
2022/10/25 06:36:30;;;;;;;24.33;8.70;;;9.70;99.90;;;;;;5108755;28;20299;-58
2022/10/25 06:38:55;;;;;;;18.33;7.70;;;9.70;99.90;;;;;;5097318;28;20439;-59
2022/10/25 06:41:26;;;;;;;15.93;7.40;;;9.70;99.90;;;;;;5102132;27;20443;-60
2022/10/25 06:43:53;;;;;;;34.10;7.53;;;9.80;99.90;;;;;;5097373;28;20169;-60
2022/10/25 06:46:27;;;;;;;15.73;6.63;;;9.80;99.90;;;;;;5108586;28;20427;-60
2022/10/25 06:48:54;;;;;;;18.00;7.60;;;9.80;99.90;;;;;;5099867;28;20818;-60
2022/10/25 06:51:21;;;;;;;26.90;7.93;;;9.80;99.90;;;;;;5106158;28;20425;-56
2022/10/25 06:53:47;;;;;;;24.13;8.03;;;9.80;99.90;;;;;;5102014;28;20502;-60
2022/10/25 06:56:13;;;;;;;20.50;8.20;;;9.90;99.90;;;;;;5101146;28;20534;-59
2022/10/25 06:58:39;;;;;;;14.80;6.93;;;9.90;99.90;;;;;;5097500;28;20593;-58
2022/10/25 07:01:19;;;;;;;25.97;10.37;;;9.90;99.90;;;;;;5108958;28;20465;-60
2022/10/25 07:03:45;;;;;;;43.50;14.40;;;10.00;99.90;;;;;;5092426;28;20423;-60
2022/10/25 07:06:13;;;;;;;41.83;12.07;;;10.00;99.90;;;;;;5095808;28;20418;-60
2022/10/25 07:08:41;;;;;;;43.80;15.00;;;10.00;99.90;;;;;;5098772;28;20746;-60
2022/10/25 07:11:16;;;;;;;62.07;12.33;;;10.00;99.90;;;;;;5100128;28;20420;-59
2022/10/25 07:13:42;;;;;;;41.17;13.60;;;10.00;99.90;;;;;;5097287;28;20490;-60
2022/10/25 07:16:10;;;;;;;45.87;15.10;;;10.00;99.90;;;;;;5101143;28;20561;-60
2022/10/25 07:18:36;;;;;;;42.63;14.60;;;10.00;99.90;;;;;;5102933;28;20169;-60
2022/10/25 07:21:04;;;;;;;46.60;14.63;;;10.00;99.90;;;;;;5110272;27;20423;-59
2022/10/25 07:23:30;;;;;;;42.10;13.33;;;10.10;99.90;;;;;;5111018;28;20633;-60
2022/10/25 07:25:57;;;;;;;36.23;12.90;;;10.10;99.90;;;;;;5113516;28;21019;-60
2022/10/25 07:28:23;;;;;;;47.67;14.50;;;10.10;99.90;;;;;;5109294;28;20599;-60
2022/10/25 07:30:48;;;;;;;38.83;13.10;;;10.20;99.90;;;;;;5107367;28;20972;-61
2022/10/25 07:33:16;;;;;;;27.93;11.97;;;10.20;99.90;;;;;;5129057;27;20816;-60
2022/10/25 07:35:46;;;;;;;37.20;12.60;;;10.20;99.90;;;;;;5096200;27;20255;-60
2022/10/25 07:38:13;;;;;;;20.80;10.33;;;10.20;99.90;;;;;;5105127;27;20999;-60
2022/10/25 07:40:39;;;;;;;27.10;11.20;;;10.30;99.90;;;;;;5107737;27;20458;-60
2022/10/25 07:43:04;;;;;;;15.33;8.63;;;10.30;99.90;;;;;;5105300;27;20439;-60
2022/10/25 07:45:30;;;;;;;20.60;8.80;;;10.30;99.90;;;;;;5107475;28;20430;-60
2022/10/25 07:47:55;;;;;;;19.30;10.00;;;10.30;99.90;;;;;;5106469;27;20632;-59
2022/10/25 07:50:21;;;;;;;20.30;9.93;;;10.40;99.90;;;;;;5106314;27;20181;-60
2022/10/25 07:52:47;;;;;;;18.67;9.20;;;10.40;99.90;;;;;;5102424;28;20193;-60
2022/10/25 07:55:13;;;;;;;16.73;7.90;;;10.40;99.90;;;;;;5102548;27;20652;-59
2022/10/25 07:57:39;;;;;;;9.40;5.87;;;10.50;99.90;;;;;;5108467;27;20197;-60
2022/10/25 08:00:09;;;;;;;17.30;10.57;;;10.50;99.90;;;;;;5110984;27;21142;-60
2022/10/25 08:02:35;;;;;;;9.70;6.00;;;10.60;99.90;;;;;;5104797;27;20434;-60
2022/10/25 08:05:01;;;;;;;13.57;6.83;;;10.60;99.90;;;;;;5104022;27;20481;-60
2022/10/25 08:07:27;;;;;;;11.43;7.40;;;10.70;99.90;;;;;;5102704;27;20523;-60
2022/10/25 08:09:52;;;;;;;8.60;5.40;;;10.70;99.90;;;;;;5106636;28;20177;-61
2022/10/25 08:12:18;;;;;;;11.73;6.50;;;10.80;99.90;;;;;;5109462;28;20423;-60
2022/10/25 08:14:43;;;;;;;13.17;7.17;;;10.80;99.90;;;;;;5099623;28;20876;-60
2022/10/25 08:17:10;;;;;;;14.43;6.67;;;10.80;99.90;;;;;;5112069;28;20192;-60
2022/10/25 08:19:36;;;;;;;7.97;5.87;;;10.90;99.90;;;;;;5110299;27;20629;-60
2022/10/25 08:22:02;;;;;;;15.90;8.33;;;10.90;99.90;;;;;;5101496;28;20411;-60
2022/10/25 08:24:27;;;;;;;18.40;8.33;;;11.00;99.90;;;;;;5107620;28;20180;-60
2022/10/25 08:26:53;;;;;;;21.67;9.27;;;11.00;99.90;;;;;;5107893;28;20450;-60
2022/10/25 08:29:18;;;;;;;24.90;8.53;;;11.00;99.90;;;;;;5102383;28;20782;-59
2022/10/25 08:31:44;;;;;;;16.43;8.87;;;11.10;99.90;;;;;;5106427;28;20234;-60
2022/10/25 08:34:10;;;;;;;15.80;8.63;;;11.10;99.90;;;;;;5110031;28;20176;-60
2022/10/25 08:36:35;;;;;;;14.93;8.77;;;11.10;99.90;;;;;;5105357;28;20263;-60
2022/10/25 08:39:01;;;;;;;12.27;7.50;;;11.20;99.90;;;;;;5110522;28;20200;-60
2022/10/25 08:41:53;;;;;;;10.60;7.90;;;11.30;99.90;;;;;;5110380;28;20227;-60
2022/10/25 08:44:21;;;;;;;11.00;7.27;;;11.30;99.90;;;;;;5110327;28;20166;-61
2022/10/25 08:47:01;;;;;;;12.33;6.30;;;11.40;99.90;;;;;;5103330;28;20517;-60
2022/10/25 08:49:45;;;;;;;8.43;6.00;;;11.40;99.90;;;;;;5123492;27;20435;-60
2022/10/25 08:52:39;;;;;;;9.33;5.47;;;11.40;99.90;;;;;;5108729;28;20427;-61
2022/10/25 08:55:22;;;;;;;9.93;4.90;;;11.40;99.90;;;;;;5103424;28;20972;-60
2022/10/25 08:57:49;;;;;;;7.30;5.60;;;11.40;99.90;;;;;;5103889;28;20451;-61
2022/10/25 09:00:21;;;;;;;9.70;5.40;;;11.50;99.90;;;;;;5100346;28;20461;-60
2022/10/25 09:02:53;;;;;;;11.73;5.47;;;11.50;99.90;;;;;;5109351;28;20488;-60
2022/10/25 09:06:01;;;;;;;8.10;4.23;;;11.50;99.90;;;;;;5105417;28;20434;-60
2022/10/25 09:08:56;;;;;;;7.37;4.77;;;11.60;99.90;;;;;;5103179;28;20534;-60
2022/10/25 09:11:28;;;;;;;7.90;4.83;;;11.60;99.90;;;;;;5097932;28;20788;-59
2022/10/25 09:14:49;;;;;;;9.57;5.40;;;11.70;99.90;;;;;;5101320;27;20426;-57
2022/10/25 09:17:25;;;;;;;7.47;5.30;;;11.80;99.90;;;;;;5025089;28;21172;-61
2022/10/25 09:20:09;;;;;;;5.97;4.87;;;11.90;99.90;;;;;;5104793;28;20451;-60
2022/10/25 09:22:46;;;;;;;7.00;4.97;;;12.00;99.90;;;;;;5103986;28;20461;-61
2022/10/25 09:25:26;;;;;;;5.93;4.10;;;12.10;99.90;;;;;;5106818;28;20453;-61
2022/10/25 09:28:02;;;;;;;6.37;4.90;;;12.20;99.90;;;;;;5109204;28;20538;-61
2022/10/25 09:30:30;;;;;;;9.63;4.80;;;12.30;99.90;;;;;;5102002;28;20963;-60
2022/10/25 09:33:01;;;;;;;6.47;4.60;;;12.30;99.90;;;;;;5103936;27;20416;-61
2022/10/25 09:35:51;;;;;;;5.93;4.40;;;12.30;99.90;;;;;;5107078;28;20434;-62
2022/10/25 09:38:48;;;;;;;8.03;4.67;;;12.40;99.90;;;;;;5105732;28;20477;-60
2022/10/25 09:41:29;;;;;;;5.27;4.07;;;12.30;99.90;;;;;;5090512;28;20411;-60
2022/10/25 09:44:10;;;;;;;5.00;3.80;;;12.30;99.90;;;;;;5106736;28;20904;-61
2022/10/25 09:46:49;;;;;;;9.60;4.60;;;12.30;99.90;;;;;;5101173;28;20431;-61
2022/10/25 09:49:37;;;;;;;7.03;4.30;;;12.30;99.90;;;;;;5101331;28;20439;-61
2022/10/25 09:52:24;;;;;;;5.67;4.37;;;12.30;99.90;;;;;;5107338;28;20475;-60
2022/10/25 09:55:03;;;;;;;5.90;4.63;;;12.30;99.90;;;;;;5097524;28;20465;-61
2022/10/25 09:57:28;;;;;;;5.70;4.33;;;12.30;99.90;;;;;;5098356;28;20510;-61
2022/10/25 09:59:54;;;;;;;5.33;3.70;;;12.30;99.90;;;;;;5107179;28;20470;-61
2022/10/25 10:02:25;;;;;;;5.07;3.83;;;12.30;99.90;;;;;;5103838;28;20165;-60
2022/10/25 10:04:51;;;;;;;6.30;4.40;;;12.40;99.90;;;;;;5090449;28;20177;-60
2022/10/25 10:07:33;;;;;;;7.50;4.10;;;12.50;99.90;;;;;;5098772;28;20482;-60
2022/10/25 10:10:02;;;;;;;10.80;4.50;;;12.60;99.90;;;;;;5107247;28;21191;-61
2022/10/25 10:12:38;;;;;;;6.00;4.60;;;12.70;99.90;;;;;;5099332;28;20503;-60
2022/10/25 10:15:20;;;;;;;4.53;3.93;;;12.80;99.90;;;;;;5103526;28;20418;-60
2022/10/25 10:17:46;;;;;;;8.90;4.50;;;12.80;99.90;;;;;;5105287;28;20443;-56
2022/10/25 10:20:17;;;;;;;10.53;4.53;;;12.90;99.90;;;;;;5099846;28;20443;-58
2022/10/25 10:22:53;;;;;;;6.03;4.63;;;12.90;99.90;;;;;;5103993;28;20181;-57
2022/10/25 10:25:23;;;;;;;6.93;4.50;;;13.00;99.90;;;;;;5103219;28;20426;-57
2022/10/25 10:27:51;;;;;;;6.03;4.53;;;13.20;99.90;;;;;;5103807;28;20451;-57
2022/10/25 10:30:30;;;;;;;13.77;4.90;;;13.30;99.90;;;;;;5097820;28;20411;-57
2022/10/25 10:33:00;;;;;;;6.53;4.40;;;13.40;99.90;;;;;;5105113;28;20458;-57
2022/10/25 10:35:34;;;;;;;9.80;4.70;;;13.50;99.90;;;;;;5101464;28;20516;-57
2022/10/25 10:38:12;;;;;;;5.17;4.00;;;13.50;99.90;;;;;;5098856;28;20517;-57
2022/10/25 10:40:38;;;;;;;4.90;3.73;;;13.60;99.90;;;;;;5096842;28;21222;-57
2022/10/25 10:43:22;;;;;;;5.47;3.67;;;13.70;99.90;;;;;;5097799;28;20428;-61
2022/10/25 10:45:50;;;;;;;7.27;3.30;;;13.90;99.90;;;;;;5104933;28;20581;-61
2022/10/25 10:48:21;;;;;;;8.80;3.87;;;14.10;99.90;;;;;;5098110;28;20964;-60
2022/10/25 10:50:49;;;;;;;4.33;3.50;;;14.30;99.90;;;;;;5107100;28;20427;-60
2022/10/25 10:53:28;;;;;;;6.37;3.80;;;14.40;99.90;;;;;;5108004;28;20442;-61
2022/10/25 10:56:01;;;;;;;6.90;3.87;;;14.60;99.90;;;;;;5111048;28;20429;-61
2022/10/25 10:58:36;;;;;;;5.47;3.23;;;14.80;99.90;;;;;;5106428;27;20458;-60
2022/10/25 11:01:11;;;;;;;6.40;4.03;;;14.90;99.90;;;;;;5109582;28;20433;-61
2022/10/25 11:03:40;;;;;;;5.07;3.40;;;15.00;99.90;;;;;;5100216;28;20628;-61
2022/10/25 11:06:26;;;;;;;4.53;2.83;;;15.10;99.90;;;;;;5110127;28;20794;-59
2022/10/25 11:09:16;;;;;;;10.53;3.33;;;15.30;99.90;;;;;;5093499;28;20408;-60
2022/10/25 11:11:43;;;;;;;5.90;2.57;;;15.50;99.90;;;;;;5105936;27;21080;-60
2022/10/25 11:14:19;;;;;;;4.87;2.63;;;15.70;99.90;;;;;;5102618;28;20419;-61
2022/10/25 11:17:16;;;;;;;3.00;2.33;;;16.00;99.90;;;;;;5110508;28;20951;-60
2022/10/25 11:20:03;;;;;;;7.13;3.20;;;16.30;99.90;;;;;;5108896;27;20486;-60
2022/10/25 11:22:41;;;;;;;5.80;2.80;;;16.50;99.90;;;;;;5106943;28;20912;-61
2022/10/25 11:25:42;;;;;;;3.97;2.43;;;16.70;99.90;;;;;;5104775;28;20437;-60
2022/10/25 11:28:36;;;;;;;4.50;2.27;;;17.00;99.90;;;;;;5101741;28;20463;-60
2022/10/25 11:31:35;;;;;;;3.93;2.20;;;17.40;99.90;;;;;;5102848;28;20427;-61
2022/10/25 11:34:19;;;;;;;6.43;2.10;;;18.00;99.60;;;;;;5107042;28;20426;-60
2022/10/25 11:36:53;;;;;;;6.90;2.23;;;18.60;97.70;;;;;;5099427;28;20533;-61
2022/10/25 11:39:31;;;;;;;3.43;1.80;;;19.30;92.90;;;;;;5098016;27;20450;-60
2022/10/25 11:42:17;;;;;;;5.80;2.27;;;20.00;83.70;;;;;;5109170;28;20471;-60
2022/10/25 11:45:20;;;;;;;3.33;1.80;;;20.60;78.00;;;;;;5109078;28;20925;-61
2022/10/25 11:48:04;;;;;;;8.57;2.50;;;21.20;68.30;;;;;;5071434;28;20545;-57
2022/10/25 11:51:16;;;;;;;2.90;1.87;;;21.60;63.60;;;;;;5103879;27;20437;-59
2022/10/25 11:54:05;;;;;;;3.13;1.80;;;21.50;64.40;;;;;;5065734;28;20436;-59
2022/10/25 11:56:41;;;;;;;6.63;2.20;;;21.20;65.60;;;;;;5095280;28;20549;-60
2022/10/25 11:59:30;;;;;;;7.40;2.23;;;20.90;65.60;;;;;;5107361;28;20455;-58
2022/10/25 12:02:16;;;;;;;3.97;2.47;;;20.30;68.30;;;;;;5100546;28;20429;-61
2022/10/25 12:04:52;;;;;;;4.30;2.37;;;19.50;71.60;;;;;;5109599;28;20430;-62
2022/10/25 12:07:43;;;;;;;5.90;2.17;;;18.80;78.80;;;;;;5104501;28;20446;-61
2022/10/25 12:10:15;;;;;;;4.30;2.50;;;18.10;90.60;;;;;;5101462;27;20515;-62
2022/10/25 12:12:48;;;;;;;5.40;2.37;;;17.50;96.90;;;;;;5104589;28;20431;-62
2022/10/25 12:15:36;;;;;;;3.90;2.50;;;17.10;99.90;;;;;;5095863;28;20416;-62
2022/10/25 12:18:04;;;;;;;4.07;2.30;;;16.90;99.90;;;;;;5093180;28;20431;-61
2022/10/25 12:20:30;;;;;;;6.73;2.50;;;17.50;99.90;;;;;;5105786;28;20493;-62
2022/10/25 12:22:58;;;;;;;3.37;2.63;;;18.60;98.00;;;;;;5107916;28;20434;-61
2022/10/25 12:25:56;;;;;;;3.60;2.17;;;19.40;90.50;;;;;;5107343;28;20442;-65
2022/10/25 12:28:26;;;;;;;6.10;1.93;;;20.50;81.80;;;;;;5105893;28;20450;-62
2022/10/25 12:30:58;;;;;;;4.93;2.30;;;21.70;67.20;;;;;;5108455;28;21258;-62
2022/10/25 12:33:34;;;;;;;3.53;2.17;;;22.60;61.80;;;;;;5101520;28;20407;-62
2022/10/25 12:36:18;;;;;;;3.77;2.10;;;23.30;58.50;;;;;;5105478;28;20430;-61
2022/10/25 12:38:43;;;;;;;4.13;2.07;;;23.90;56.00;;;;;;5095726;28;20907;-61
2022/10/25 12:41:21;;;;;;;6.57;2.37;;;24.20;54.50;;;;;;5106604;27;20179;-63
2022/10/25 12:43:50;;;;;;;3.03;1.70;;;24.40;54.00;;;;;;5106513;27;20196;-62
2022/10/25 12:46:34;;;;;;;5.13;1.77;;;24.40;53.30;;;;;;5092871;28;20189;-61
2022/10/25 12:49:23;;;;;;;4.47;1.52;;;24.10;53.10;;;;;;5100829;28;20650;-63
2022/10/25 12:52:00;;;;;;;7.17;2.23;;;23.30;54.50;;;;;;5100635;28;20180;-62
2022/10/25 12:54:47;;;;;;;2.87;1.67;;;22.80;55.60;;;;;;5108177;28;20202;-62
2022/10/25 12:57:49;;;;;;;5.00;2.30;;;22.20;57.20;;;;;;5106901;28;20253;-62
2022/10/25 13:00:18;;;;;;;3.90;2.23;;;21.90;58.30;;;;;;5100861;28;20453;-61
2022/10/25 13:03:21;;;;;;;7.50;2.30;;;21.60;59.30;;;;;;5102983;28;20488;-61
2022/10/25 13:06:14;;;;;;;4.90;1.87;;;21.90;59.80;;;;;;5098885;28;20412;-60
2022/10/25 13:08:40;;;;;;;3.67;2.20;;;22.60;59.10;;;;;;5108285;28;20418;-60
2022/10/25 13:11:08;;;;;;;5.27;1.77;;;23.20;58.00;;;;;;5109309;28;20529;-57